createdAt,value
2022-11-17T00:00:43.408Z,95350.31
2022-11-17T00:03:20.365Z,95367.56
2022-11-17T00:05:51.660Z,95354.50
2022-11-17T00:08:20.442Z,95357.72
2022-11-17T00:10:51.857Z,95370.34
2022-11-17T00:13:39.431Z,95364.06
2022-11-17T00:16:06.211Z,95341.41
2022-11-17T00:18:58.952Z,95333.31
2022-11-17T00:21:28.995Z,95339.75
2022-11-17T00:23:58.784Z,95352.06
2022-11-17T00:26:31.730Z,95354.97
2022-11-17T00:29:06.870Z,95357.66
2022-11-17T00:31:52.893Z,95353.03
2022-11-17T00:34:22.060Z,95343.66
2022-11-17T00:36:53.963Z,95339.75
2022-11-17T00:39:24.750Z,95333.63
2022-11-17T00:41:51.355Z,95332.22
2022-11-17T00:44:20.124Z,95322.56
2022-11-17T00:46:51.497Z,95316.41
2022-11-17T00:49:21.525Z,95305.22
2022-11-17T00:51:54.471Z,95304.03
2022-11-17T00:54:21.512Z,95301.34
2022-11-17T00:56:50.821Z,95282.56
2022-11-17T00:59:17.455Z,95268.50
2022-11-17T01:01:47.546Z,95273.91
2022-11-17T01:04:17.668Z,95268.19
2022-11-17T01:06:47.000Z,95259.03
2022-11-17T01:09:17.557Z,95269.25
2022-11-17T01:11:44.387Z,95264.75
2022-11-17T01:14:16.818Z,95262.25
2022-11-17T01:16:45.918Z,95260.09
2022-11-17T01:19:16.815Z,95245.84
2022-11-17T01:21:44.168Z,95247.91
2022-11-17T01:24:15.238Z,95232.19
2022-11-17T01:26:42.645Z,95225.78
2022-11-17T01:29:13.694Z,95222.00
2022-11-17T01:31:43.986Z,95214.09
2022-11-17T01:34:15.293Z,95213.84
2022-11-17T01:37:04.201Z,95209.81
2022-11-17T01:39:31.919Z,95211.50
2022-11-17T01:42:04.014Z,95211.09
2022-11-17T01:44:36.538Z,95198.66
2022-11-17T01:47:17.188Z,95195.38
2022-11-17T01:49:45.301Z,95185.53
2022-11-17T01:52:13.145Z,95180.72
2022-11-17T01:54:43.737Z,95182.53
2022-11-17T01:57:19.821Z,95173.38
2022-11-17T01:59:54.429Z,95175.78
2022-11-17T02:02:21.297Z,95185.38
2022-11-17T02:05:14.266Z,95172.63
2022-11-17T02:07:42.985Z,95187.66
2022-11-17T02:10:09.953Z,95187.66
2022-11-17T02:12:42.845Z,95197.41
2022-11-17T02:15:10.195Z,95202.78
2022-11-17T02:17:38.905Z,95208.66
2022-11-17T02:20:13.356Z,95201.31
2022-11-17T02:23:26.724Z,95187.50
2022-11-17T02:26:31.316Z,95201.31
2022-11-17T02:29:00.863Z,95214.50
2022-11-17T02:31:37.978Z,95196.78
2022-11-17T02:34:35.615Z,95192.47
2022-11-17T02:37:11.624Z,95192.75
2022-11-17T02:39:55.677Z,95189.28
2022-11-17T02:42:45.261Z,95192.00
2022-11-17T02:45:20.977Z,95191.25
2022-11-17T02:47:54.396Z,95181.19
2022-11-17T02:50:28.450Z,95185.84
2022-11-17T02:53:00.037Z,95187.81
2022-11-17T02:55:27.757Z,95189.28
2022-11-17T02:57:54.323Z,95192.75
2022-11-17T03:00:21.030Z,95172.63
2022-11-17T03:03:24.426Z,95171.88
2022-11-17T03:06:29.259Z,95174.59
2022-11-17T03:09:10.449Z,95167.56
2022-11-17T03:11:50.192Z,95172.94
2022-11-17T03:14:19.733Z,95174.78
2022-11-17T03:17:07.026Z,95177.47
2022-11-17T03:19:41.612Z,95191.28
2022-11-17T03:22:08.173Z,95180.00
2022-11-17T03:24:45.296Z,95147.91
2022-11-17T03:27:21.191Z,95167.25
2022-11-17T03:29:53.151Z,95161.84
2022-11-17T03:32:23.406Z,95159.91
2022-11-17T03:34:57.482Z,95164.13
2022-11-17T03:37:33.816Z,95158.72
2022-11-17T03:40:11.515Z,95154.50
2022-11-17T03:42:42.268Z,95152.13
2022-11-17T03:45:16.546Z,95144.31
2022-11-17T03:47:44.743Z,95146.56
2022-11-17T03:50:28.023Z,95143.44
2022-11-17T03:52:57.384Z,95145.38
2022-11-17T03:55:32.364Z,95151.09
2022-11-17T03:58:09.335Z,95150.34
2022-11-17T04:00:41.150Z,95159.66
2022-11-17T04:03:10.448Z,95166.56
2022-11-17T04:05:37.041Z,95159.19
2022-11-17T04:08:12.014Z,95155.75
2022-11-17T04:10:58.579Z,95159.94
2022-11-17T04:13:43.790Z,95166.09
2022-11-17T04:16:12.819Z,95158.28
2022-11-17T04:18:39.382Z,95153.63
2022-11-17T04:21:06.074Z,95157.97
2022-11-17T04:23:32.868Z,95162.63
2022-11-17T04:26:20.382Z,95165.34
2022-11-17T04:28:50.903Z,95161.91
2022-11-17T04:31:33.516Z,95169.09
2022-11-17T04:34:02.319Z,95167.59
2022-11-17T04:36:31.666Z,95157.09
2022-11-17T04:38:59.653Z,95151.69
2022-11-17T04:41:50.821Z,95151.81
2022-11-17T04:44:22.050Z,95153.03
2022-11-17T04:46:48.821Z,95152.75
2022-11-17T04:49:20.025Z,95154.69
2022-11-17T04:51:47.138Z,95155.56
2022-11-17T04:54:18.177Z,95165.19
2022-11-17T04:56:45.306Z,95160.53
2022-11-17T04:59:12.042Z,95161.28
2022-11-17T05:01:41.195Z,95151.97
2022-11-17T05:04:12.613Z,95169.25
2022-11-17T05:06:42.076Z,95164.59
2022-11-17T05:09:16.937Z,95166.09
2022-11-17T05:12:02.504Z,95167.31
2022-11-17T05:14:30.439Z,95157.69
2022-11-17T05:17:10.842Z,95165.81
2022-11-17T05:19:40.216Z,95168.50
2022-11-17T05:22:28.101Z,95167.75
2022-11-17T05:24:55.471Z,95177.38
2022-11-17T05:27:25.310Z,95181.53
2022-11-17T05:29:52.008Z,95176.00
2022-11-17T05:32:21.221Z,95173.31
2022-11-17T05:34:47.955Z,95189.84
2022-11-17T05:37:14.708Z,95210.56
2022-11-17T05:39:44.257Z,95197.81
2022-11-17T05:42:10.834Z,95188.19
2022-11-17T05:44:40.110Z,95194.63
2022-11-17T05:47:06.763Z,95192.69
2022-11-17T05:49:33.397Z,95196.13
2022-11-17T05:52:02.436Z,95186.84
2022-11-17T05:54:29.047Z,95191.81
2022-11-17T05:57:04.448Z,95174.38
2022-11-17T05:59:55.279Z,95167.91
2022-11-17T06:02:28.461Z,95144.50
2022-11-17T06:04:58.026Z,95144.03
2022-11-17T06:07:24.837Z,95138.91
2022-11-17T06:09:52.214Z,95150.28
2022-11-17T06:12:23.755Z,95153.91
2022-11-17T06:14:50.317Z,95152.38
2022-11-17T06:17:25.849Z,95156.56
2022-11-17T06:20:01.587Z,95151.16
2022-11-17T06:22:29.251Z,95141.22
2022-11-17T06:24:58.697Z,95152.13
2022-11-17T06:27:26.721Z,95149.56
2022-11-17T06:29:55.211Z,95154.06
2022-11-17T06:32:21.966Z,95152.53
2022-11-17T06:34:55.763Z,95154.69
2022-11-17T06:37:23.947Z,95164.72
2022-11-17T06:39:55.773Z,95157.50
2022-11-17T06:42:42.341Z,95149.53
2022-11-17T06:45:09.518Z,95143.56
2022-11-17T06:47:36.114Z,95145.84
2022-11-17T06:50:03.248Z,95145.09
2022-11-17T06:52:29.887Z,95162.06
2022-11-17T06:54:58.734Z,95138.25
2022-11-17T06:57:25.302Z,95144.47
2022-11-17T06:59:54.185Z,95141.28
2022-11-17T07:02:23.122Z,95149.25
2022-11-17T07:04:49.680Z,95146.38
2022-11-17T07:07:19.256Z,95148.81
2022-11-17T07:09:45.866Z,95171.97
2022-11-17T07:12:12.477Z,95164.31
2022-11-17T07:14:39.041Z,95173.00
2022-11-17T07:17:06.878Z,95157.56
2022-11-17T07:19:35.971Z,95175.75
2022-11-17T07:22:04.265Z,95179.84
2022-11-17T07:24:33.390Z,95184.19
2022-11-17T07:27:04.783Z,95184.81
2022-11-17T07:29:36.094Z,95191.59
2022-11-17T07:32:05.159Z,95191.28
2022-11-17T07:34:34.052Z,95172.66
2022-11-17T07:37:02.900Z,95159.59
2022-11-17T07:39:31.935Z,95186.34
2022-11-17T07:42:00.791Z,95178.69
2022-11-17T07:44:27.371Z,95191.75
2022-11-17T07:46:55.027Z,95195.81
2022-11-17T07:49:21.674Z,95188.72
2022-11-17T07:51:50.466Z,95192.50
2022-11-17T07:54:19.267Z,95216.69
2022-11-17T07:56:49.234Z,95201.06
2022-11-17T07:59:21.394Z,95201.66
2022-11-17T08:01:50.727Z,95213.53
2022-11-17T08:04:20.279Z,95214.16
2022-11-17T08:06:46.874Z,95226.63
2022-11-17T08:09:15.573Z,95225.56
2022-11-17T08:11:42.154Z,95234.56
2022-11-17T08:14:08.793Z,95227.63
2022-11-17T08:16:35.356Z,95230.19
2022-11-17T08:19:04.238Z,95232.28
2022-11-17T08:21:30.895Z,95229.09
2022-11-17T08:24:00.248Z,95232.38
2022-11-17T08:26:26.813Z,95231.88
2022-11-17T08:28:58.952Z,95227.63
2022-11-17T08:31:26.123Z,95222.78
2022-11-17T08:33:55.650Z,95223.38
2022-11-17T08:36:24.795Z,95226.38
2022-11-17T08:38:51.507Z,95215.84
2022-11-17T08:41:21.783Z,95224.22
2022-11-17T08:43:51.359Z,95240.63
2022-11-17T08:46:20.745Z,95238.59
2022-11-17T08:48:53.873Z,95248.56
2022-11-17T08:51:23.688Z,95266.03
2022-11-17T08:53:50.296Z,95274.47
2022-11-17T08:56:19.425Z,95270.28
2022-11-17T08:58:48.297Z,95276.63
2022-11-17T09:01:16.624Z,95277.53
2022-11-17T09:03:45.510Z,95269.72
2022-11-17T09:06:16.453Z,95277.38
2022-11-17T09:08:45.962Z,95283.06
2022-11-17T09:11:16.771Z,95285.03
2022-11-17T09:13:45.628Z,95292.34
2022-11-17T09:16:12.516Z,95292.25
2022-11-17T09:18:41.306Z,95295.38
2022-11-17T09:21:15.580Z,95286.88
2022-11-17T09:23:44.878Z,95285.56
2022-11-17T09:26:14.168Z,95286.53
2022-11-17T09:28:41.227Z,95282.16
2022-11-17T09:31:09.595Z,95286.53
2022-11-17T09:33:39.442Z,95285.63
2022-11-17T09:36:08.722Z,95280.28
2022-11-17T09:38:38.968Z,95293.72
2022-11-17T09:41:21.372Z,95286.78
2022-11-17T09:44:40.287Z,95294.47
2022-11-17T09:47:25.005Z,95294.72
2022-11-17T09:50:03.519Z,95286.25
2022-11-17T09:52:47.698Z,95292.53
2022-11-17T09:55:16.505Z,95281.03
2022-11-17T09:57:48.418Z,95284.50
2022-11-17T10:00:18.636Z,95289.28
2022-11-17T10:02:46.332Z,95283.66
2022-11-17T10:05:20.758Z,95282.19
2022-11-17T10:07:51.219Z,95284.63
2022-11-17T10:10:25.263Z,95283.78
2022-11-17T10:12:58.139Z,95274.28
2022-11-17T10:15:29.596Z,95281.97
2022-11-17T10:17:58.792Z,95274.19
2022-11-17T10:20:27.489Z,95279.44
2022-11-17T10:22:57.274Z,95280.09
2022-11-17T10:25:37.791Z,95275.13
2022-11-17T10:28:09.487Z,95274.44
2022-11-17T10:30:40.758Z,95274.22
2022-11-17T10:33:13.321Z,95277.31
2022-11-17T10:35:53.982Z,95267.59
2022-11-17T10:38:21.018Z,95277.75
2022-11-17T10:40:52.266Z,95276.97
2022-11-17T10:43:30.367Z,95269.38
2022-11-17T10:46:13.142Z,95270.72
2022-11-17T10:48:53.441Z,95270.91
2022-11-17T10:51:25.593Z,95255.53
2022-11-17T10:54:07.180Z,95249.41
2022-11-17T10:56:41.857Z,95243.03
2022-11-17T10:59:16.527Z,95238.44
2022-11-17T11:01:48.052Z,95239.00
2022-11-17T11:04:39.602Z,95236.59
2022-11-17T11:07:36.110Z,95238.50
2022-11-17T11:10:17.089Z,95239.16
2022-11-17T11:13:20.830Z,95245.00
2022-11-17T11:15:49.749Z,95239.28
2022-11-17T11:18:18.655Z,95226.44
2022-11-17T11:21:25.913Z,95234.03
2022-11-17T11:24:23.320Z,95234.13
2022-11-17T11:27:25.468Z,95225.13
2022-11-17T11:30:13.794Z,95219.16
2022-11-17T11:32:55.765Z,95206.91
2022-11-17T11:35:37.669Z,95207.72
2022-11-17T11:38:19.470Z,95211.19
2022-11-17T11:41:04.878Z,95222.03
2022-11-17T11:43:37.127Z,95226.91
2022-11-17T11:46:26.201Z,95229.63
2022-11-17T11:48:56.329Z,95223.81
2022-11-17T11:51:34.629Z,95213.25
2022-11-17T11:54:13.470Z,95229.72
2022-11-17T11:56:44.342Z,95236.09
2022-11-17T11:59:23.722Z,95226.13
2022-11-17T12:02:13.654Z,95245.97
2022-11-17T12:04:49.071Z,95227.69
2022-11-17T12:07:27.075Z,95206.66
2022-11-17T12:10:05.991Z,95202.50
2022-11-17T12:12:39.162Z,95202.44
2022-11-17T12:15:33.845Z,95190.59
2022-11-17T12:18:10.691Z,95194.94
2022-11-17T12:20:37.216Z,95209.03
2022-11-17T12:23:28.095Z,95217.25
2022-11-17T12:25:58.035Z,95217.81
2022-11-17T12:28:32.774Z,95225.41
2022-11-17T12:31:09.731Z,95241.69
2022-11-17T12:33:54.748Z,95241.75
2022-11-17T12:36:30.255Z,95238.66
2022-11-17T12:39:23.267Z,95228.38
2022-11-17T12:41:49.861Z,95232.78
2022-11-17T12:44:38.500Z,95224.41
2022-11-17T12:47:26.363Z,95226.09
2022-11-17T12:50:18.113Z,95216.56
2022-11-17T12:53:05.652Z,95217.13
2022-11-17T12:55:37.501Z,95208.97
2022-11-17T12:58:14.886Z,95213.84
2022-11-17T13:00:53.916Z,95206.72
2022-11-17T13:03:45.273Z,95215.16
2022-11-17T13:09:11.559Z,95215.00
2022-11-17T13:11:40.365Z,95211.72
2022-11-17T13:14:18.235Z,95200.53
2022-11-17T13:16:51.229Z,95206.25
2022-11-17T13:19:31.800Z,95213.50
2022-11-17T13:22:19.106Z,95207.19
2022-11-17T13:24:55.242Z,95215.28
2022-11-17T13:27:24.033Z,95198.13
2022-11-17T13:30:13.458Z,95210.50
2022-11-17T13:32:43.254Z,95205.09
2022-11-17T13:35:32.888Z,95210.03
2022-11-17T13:38:11.327Z,95220.84
2022-11-17T13:40:44.286Z,95233.22
2022-11-17T13:43:15.133Z,95218.34
2022-11-17T13:45:45.856Z,95214.72
2022-11-17T13:48:37.692Z,95230.38
2022-11-17T13:51:25.414Z,95222.81
2022-11-17T13:53:54.873Z,95216.44
2022-11-17T13:56:37.550Z,95193.47
2022-11-17T13:59:18.669Z,95201.81
2022-11-17T14:01:45.572Z,95195.44
2022-11-17T14:04:20.071Z,95202.97
2022-11-17T14:07:03.639Z,95210.72
2022-11-17T14:09:36.418Z,95224.66
2022-11-17T14:12:12.404Z,95234.72
2022-11-17T14:14:38.942Z,95242.09
2022-11-17T14:17:15.049Z,95238.34
2022-11-17T14:19:44.659Z,95218.31
2022-11-17T14:22:15.860Z,95219.63
2022-11-17T14:24:48.911Z,95217.09
2022-11-17T14:27:29.735Z,95199.84
2022-11-17T14:29:56.546Z,95218.31
2022-11-17T14:32:25.413Z,95210.50
2022-11-17T14:34:54.243Z,95213.31
2022-11-17T14:37:20.861Z,95212.50
2022-11-17T14:39:52.161Z,95213.78
2022-11-17T14:42:23.469Z,95214.13
2022-11-17T14:44:50.108Z,95211.78
2022-11-17T14:47:16.652Z,95218.34
2022-11-17T14:49:45.653Z,95227.59
2022-11-17T14:52:17.012Z,95213.75
2022-11-17T14:54:43.540Z,95222.44
2022-11-17T14:57:12.294Z,95212.22
2022-11-17T14:59:41.267Z,95204.72
2022-11-17T15:02:11.435Z,95200.50
2022-11-17T15:04:50.506Z,95206.84
2022-11-17T15:07:17.932Z,95207.00
2022-11-17T15:09:47.236Z,95204.03
2022-11-17T15:12:16.346Z,95203.00
2022-11-17T15:14:42.938Z,95200.28
2022-11-17T15:17:14.444Z,95195.03
2022-11-17T15:19:44.057Z,95184.97
2022-11-17T15:22:10.818Z,95184.41
2022-11-17T15:24:37.319Z,95175.69
2022-11-17T15:27:03.894Z,95181.59
2022-11-17T15:29:35.172Z,95174.81
2022-11-17T15:32:03.920Z,95165.66
2022-11-17T15:34:30.438Z,95163.88
2022-11-17T15:36:56.985Z,95165.25
2022-11-17T15:39:25.585Z,95158.22
2022-11-17T15:41:52.159Z,95151.94
2022-11-17T15:44:20.887Z,95141.72
2022-11-17T15:46:49.712Z,95142.50
2022-11-17T15:49:18.897Z,95148.38
2022-11-17T15:51:45.663Z,95151.25
2022-11-17T15:54:19.898Z,95153.09
2022-11-17T15:56:47.402Z,95153.59
2022-11-17T15:59:16.751Z,95151.53
2022-11-17T16:01:44.235Z,95156.09
2022-11-17T16:04:15.548Z,95146.31
2022-11-17T16:06:44.019Z,95146.88
2022-11-17T16:09:12.154Z,95145.59
2022-11-17T16:11:43.320Z,95141.41
2022-11-17T16:14:09.996Z,95142.47
2022-11-17T16:16:42.065Z,95141.72
2022-11-17T16:19:08.737Z,95142.03
2022-11-17T16:21:37.649Z,95139.75
2022-11-17T16:24:08.085Z,95146.97
2022-11-17T16:26:37.424Z,95143.97
2022-11-17T16:29:08.845Z,95136.00
2022-11-17T16:31:36.684Z,95135.09
2022-11-17T16:34:11.947Z,95132.53
2022-11-17T16:36:40.360Z,95137.06
2022-11-17T16:39:16.632Z,95150.28
2022-11-17T16:41:46.249Z,95149.09
2022-11-17T16:44:15.980Z,95151.78
2022-11-17T16:46:44.787Z,95159.13
2022-11-17T16:49:14.699Z,95155.78
2022-11-17T16:51:47.422Z,95139.19
2022-11-17T16:54:14.061Z,95138.59
2022-11-17T16:56:40.598Z,95146.13
2022-11-17T16:59:09.544Z,95144.06
2022-11-17T17:01:39.064Z,95160.34
2022-11-17T17:04:10.078Z,95155.75
2022-11-17T17:06:40.247Z,95165.09
2022-11-17T17:09:11.035Z,95172.16
2022-11-17T17:11:37.774Z,95154.38
2022-11-17T17:14:10.134Z,95139.88
2022-11-17T17:16:39.463Z,95117.63
2022-11-17T17:19:07.976Z,95099.06
2022-11-17T17:21:39.062Z,95107.53
2022-11-17T17:24:09.752Z,95104.66
2022-11-17T17:26:40.236Z,95115.22
2022-11-17T17:29:10.644Z,95120.84
2022-11-17T17:31:40.805Z,95118.22
2022-11-17T17:34:08.790Z,95125.66
2022-11-17T17:36:37.095Z,95132.44
2022-11-17T17:39:04.464Z,95121.59
2022-11-17T17:41:33.528Z,95137.13
2022-11-17T17:44:02.488Z,95135.53
2022-11-17T17:46:33.801Z,95142.94
2022-11-17T17:49:03.920Z,95156.22
2022-11-17T17:51:32.670Z,95169.19
2022-11-17T17:54:01.953Z,95166.66
2022-11-17T17:56:30.426Z,95181.84
2022-11-17T17:58:59.497Z,95181.56
2022-11-17T18:01:28.526Z,95186.88
2022-11-17T18:04:04.417Z,95195.44
2022-11-17T18:06:35.932Z,95189.03
2022-11-17T18:09:04.804Z,95193.97
2022-11-17T18:11:36.699Z,95182.69
2022-11-17T18:14:04.219Z,95196.09
2022-11-17T18:16:32.837Z,95205.75
2022-11-17T18:19:05.212Z,95191.34
2022-11-17T18:21:32.478Z,95181.56
2022-11-17T18:24:01.250Z,95218.91
2022-11-17T18:26:31.571Z,95205.81
2022-11-17T18:29:01.290Z,95220.56
2022-11-17T18:31:30.943Z,95235.75
2022-11-17T18:34:05.191Z,95246.91
2022-11-17T18:36:34.917Z,95259.38
2022-11-17T18:39:03.791Z,95261.06
2022-11-17T18:41:34.041Z,95289.47
2022-11-17T18:44:01.199Z,95243.59
2022-11-17T18:46:30.372Z,95270.97
2022-11-17T18:48:57.490Z,95286.00
2022-11-17T18:51:31.655Z,95291.88
2022-11-17T18:54:00.120Z,95301.19
2022-11-17T18:56:37.012Z,95302.72
2022-11-17T18:59:11.184Z,95306.63
2022-11-17T19:01:42.223Z,95304.22
2022-11-17T19:04:08.891Z,95297.00
2022-11-17T19:06:37.604Z,95300.16
2022-11-17T19:09:08.309Z,95316.41
2022-11-17T19:11:35.035Z,95312.19
2022-11-17T19:14:07.438Z,95315.81
2022-11-17T19:16:42.506Z,95320.00
2022-11-17T19:19:14.316Z,95317.59
2022-11-17T19:21:41.389Z,95331.41
2022-11-17T19:24:08.970Z,95331.28
2022-11-17T19:26:36.289Z,95346.00
2022-11-17T19:29:14.294Z,95335.00
2022-11-17T19:31:43.101Z,95337.72
2022-11-17T19:34:11.925Z,95336.50
2022-11-17T19:36:38.887Z,95337.41
2022-11-17T19:39:08.264Z,95340.41
2022-11-17T19:41:39.840Z,95321.31
2022-11-17T19:44:08.789Z,95314.09
2022-11-17T19:46:39.024Z,95310.94
2022-11-17T19:49:08.747Z,95306.25
2022-11-17T19:51:37.021Z,95303.06
2022-11-17T19:54:08.906Z,95308.34
2022-11-17T19:56:35.695Z,95310.75
2022-11-17T19:59:03.388Z,95314.78
2022-11-17T20:01:33.658Z,95311.34
2022-11-17T20:04:01.468Z,95319.13
2022-11-17T20:06:35.876Z,95314.03
2022-11-17T20:09:08.733Z,95317.91
2022-11-17T20:11:38.035Z,95319.44
2022-11-17T20:14:07.143Z,95308.75
2022-11-17T20:16:33.793Z,95308.00
2022-11-17T20:19:04.795Z,95315.69
2022-11-17T20:21:31.486Z,95338.69
2022-11-17T20:23:59.213Z,95349.66
2022-11-17T20:26:28.471Z,95360.81
2022-11-17T20:28:56.569Z,95369.50
2022-11-17T20:31:25.264Z,95370.91
2022-11-17T20:33:57.588Z,95373.47
2022-11-17T20:36:24.147Z,95355.72
2022-11-17T20:38:54.683Z,95357.50
2022-11-17T20:41:25.078Z,95359.75
2022-11-17T20:43:53.387Z,95361.41
2022-11-17T20:46:26.232Z,95366.81
2022-11-17T20:48:53.082Z,95370.13
2022-11-17T20:51:21.793Z,95364.28
2022-11-17T20:53:50.877Z,95367.75
2022-11-17T20:56:21.150Z,95351.19
2022-11-17T20:58:48.226Z,95356.63
2022-11-17T21:01:17.317Z,95351.97
2022-11-17T21:03:45.451Z,95363.22
2022-11-17T21:06:13.376Z,95369.38
2022-11-17T21:08:41.191Z,95357.38
2022-11-17T21:11:32.978Z,95367.88
2022-11-17T21:14:02.848Z,95361.41
2022-11-17T21:16:29.546Z,95362.91
2022-11-17T21:18:58.319Z,95360.19
2022-11-17T21:21:27.714Z,95358.69
2022-11-17T21:23:57.505Z,95348.19
2022-11-17T21:26:27.945Z,95337.22
2022-11-17T21:28:54.845Z,95334.22
2022-11-17T21:31:26.201Z,95332.72
2022-11-17T21:33:54.860Z,95333.91
2022-11-17T21:36:22.925Z,95335.09
2022-11-17T21:38:55.246Z,95336.16
2022-11-17T21:41:25.970Z,95328.06
2022-11-17T21:43:54.147Z,95325.03
2022-11-17T21:46:25.367Z,95321.88
2022-11-17T21:48:53.434Z,95309.84
2022-11-17T21:51:27.286Z,95310.75
2022-11-17T21:53:58.161Z,95312.13
2022-11-17T21:56:28.450Z,95317.97
2022-11-17T21:59:09.586Z,95322.19
2022-11-17T22:01:39.012Z,95326.84
2022-11-17T22:04:08.147Z,95315.56
2022-11-17T22:06:34.727Z,95326.84
2022-11-17T22:09:04.060Z,95322.63
2022-11-17T22:11:38.827Z,95324.13
2022-11-17T22:14:12.545Z,95315.06
2022-11-17T22:16:45.920Z,95299.91
2022-11-17T22:19:14.057Z,95296.16
2022-11-17T22:21:40.883Z,95305.00
2022-11-17T22:24:10.155Z,95306.84
2022-11-17T22:26:41.073Z,95297.97
2022-11-17T22:29:15.311Z,95307.91
2022-11-17T22:31:44.152Z,95304.44
2022-11-17T22:34:16.027Z,95297.53
2022-11-17T22:36:45.096Z,95294.69
2022-11-17T22:39:11.891Z,95292.88
2022-11-17T22:41:43.091Z,95292.44
2022-11-17T22:44:13.759Z,95285.94
2022-11-17T22:46:45.795Z,95284.00
2022-11-17T22:49:12.916Z,95287.59
2022-11-17T22:51:58.027Z,95283.56
2022-11-17T22:54:24.552Z,95284.31
2022-11-17T22:56:53.562Z,95285.06
2022-11-17T22:59:25.567Z,95289.28
2022-11-17T23:01:54.978Z,95282.50
2022-11-17T23:04:23.873Z,95296.31
2022-11-17T23:06:53.033Z,95293.19
2022-11-17T23:09:19.879Z,95290.16
2022-11-17T23:11:46.570Z,95294.25
2022-11-17T23:14:14.306Z,95291.81
2022-11-17T23:16:41.644Z,95289.59
2022-11-17T23:19:11.160Z,95290.03
2022-11-17T23:21:37.663Z,95292.28
2022-11-17T23:24:09.420Z,95301.75
2022-11-17T23:26:39.470Z,95288.53
2022-11-17T23:29:09.291Z,95285.94
2022-11-17T23:31:35.918Z,95288.22
2022-11-17T23:34:07.744Z,95292.88
2022-11-17T23:36:34.271Z,95288.97
2022-11-17T23:39:00.779Z,95290.78
2022-11-17T23:41:29.834Z,95286.88
2022-11-17T23:43:58.606Z,95291.53
2022-11-17T23:46:26.358Z,95293.03
2022-11-17T23:48:53.921Z,95296.47
2022-11-17T23:51:29.730Z,95299.19
2022-11-17T23:54:02.963Z,95293.50
2022-11-17T23:56:36.329Z,95288.09
2022-11-17T23:59:06.090Z,95283.44
